createdAt,value
2017-11-12T00:00:16.814Z,7.70
2017-11-12T00:02:45.658Z,7.70
2017-11-12T00:05:14.512Z,7.60
2017-11-12T00:07:43.391Z,7.60
2017-11-12T00:10:13.019Z,7.60
2017-11-12T00:12:41.873Z,7.50
2017-11-12T00:15:10.718Z,7.50
2017-11-12T00:17:39.581Z,7.70
2017-11-12T00:20:09.197Z,7.70
2017-11-12T00:22:38.077Z,7.70
2017-11-12T00:25:07.699Z,7.70
2017-11-12T00:27:36.540Z,7.70
2017-11-12T00:30:05.377Z,7.70
2017-11-12T00:32:34.573Z,7.80
2017-11-12T00:35:03.424Z,7.90
2017-11-12T00:37:32.267Z,8.00
2017-11-12T00:40:01.122Z,8.00
2017-11-12T00:42:30.725Z,8.00
2017-11-12T00:45:00.347Z,7.90
2017-11-12T00:47:29.192Z,7.90
2017-11-12T00:49:59.901Z,7.90
2017-11-12T00:52:29.471Z,8.10
2017-11-12T00:54:58.308Z,8.10
2017-11-12T00:57:27.148Z,8.10
2017-11-12T00:59:56.756Z,8.00
2017-11-12T01:02:25.588Z,7.90
2017-11-12T01:04:54.436Z,7.80
2017-11-12T01:07:24.399Z,7.50
2017-11-12T01:09:53.271Z,7.50
2017-11-12T01:12:22.120Z,7.50
2017-11-12T01:14:50.953Z,7.30
2017-11-12T01:17:19.803Z,7.30
2017-11-12T01:19:48.640Z,7.40
2017-11-12T01:22:17.505Z,7.60
2017-11-12T01:24:46.468Z,7.70
2017-11-12T01:27:15.356Z,7.80
2017-11-12T01:29:44.197Z,7.90
2017-11-12T01:32:13.139Z,7.90
2017-11-12T01:34:41.993Z,7.90
2017-11-12T01:37:10.838Z,7.80
2017-11-12T01:39:40.441Z,7.90
2017-11-12T01:42:09.897Z,7.90
2017-11-12T01:44:38.789Z,8.00
2017-11-12T01:47:07.613Z,8.00
2017-11-12T01:49:37.247Z,8.00
2017-11-12T01:52:06.088Z,8.00
2017-11-12T01:54:34.925Z,8.00
2017-11-12T01:57:03.779Z,8.00
2017-11-12T01:59:33.397Z,8.10
2017-11-12T02:02:03.015Z,8.10
2017-11-12T02:04:31.856Z,8.00
2017-11-12T02:07:01.697Z,8.10
2017-11-12T02:09:31.309Z,8.20
2017-11-12T02:12:00.932Z,8.10
2017-11-12T02:14:30.088Z,8.10
2017-11-12T02:16:58.925Z,8.00
2017-11-12T02:19:28.128Z,8.00
2017-11-12T02:21:56.956Z,8.10
2017-11-12T02:24:26.824Z,8.10
2017-11-12T02:26:55.677Z,8.10
2017-11-12T02:29:25.290Z,8.20
2017-11-12T02:31:54.909Z,8.10
2017-11-12T02:34:24.524Z,7.80
2017-11-12T02:36:54.111Z,7.90
2017-11-12T02:39:23.754Z,8.00
2017-11-12T02:41:52.608Z,7.90
2017-11-12T02:44:22.232Z,7.90
2017-11-12T02:46:51.088Z,7.90
2017-11-12T02:49:19.922Z,8.00
2017-11-12T02:51:48.774Z,7.90
2017-11-12T02:54:18.378Z,7.80
2017-11-12T02:56:47.995Z,7.90
2017-11-12T02:59:16.861Z,7.90
2017-11-12T03:01:45.705Z,8.00
2017-11-12T03:04:14.544Z,8.00
2017-11-12T03:06:43.390Z,8.00
2017-11-12T03:09:12.248Z,8.00
2017-11-12T03:11:41.842Z,8.10
2017-11-12T03:14:11.471Z,8.20
2017-11-12T03:16:40.656Z,8.10
2017-11-12T03:19:09.511Z,8.10
2017-11-12T03:21:38.357Z,8.00
2017-11-12T03:24:07.208Z,7.90
2017-11-12T03:26:36.841Z,8.00
2017-11-12T03:29:05.691Z,8.00
2017-11-12T03:31:34.532Z,8.10
2017-11-12T03:34:03.372Z,8.00
2017-11-12T03:36:33.121Z,8.00
2017-11-12T03:39:02.734Z,8.00
2017-11-12T03:41:31.568Z,7.90
2017-11-12T03:44:00.409Z,8.00
2017-11-12T03:46:29.264Z,8.10
2017-11-12T03:48:58.107Z,8.10
2017-11-12T03:51:26.938Z,8.20
2017-11-12T03:53:55.814Z,8.20
2017-11-12T03:56:24.672Z,8.30
2017-11-12T03:58:53.509Z,8.30
2017-11-12T04:01:23.356Z,8.20
2017-11-12T04:03:52.338Z,8.10
2017-11-12T04:06:21.169Z,8.00
2017-11-12T04:08:50.021Z,8.00
2017-11-12T04:11:18.874Z,8.00
2017-11-12T04:13:49.291Z,7.80
2017-11-12T04:16:18.128Z,7.80
2017-11-12T04:18:47.604Z,7.70
2017-11-12T04:21:17.228Z,7.60
2017-11-12T04:23:46.197Z,7.60
2017-11-12T04:26:15.056Z,7.50
2017-11-12T04:28:43.885Z,7.60
2017-11-12T04:31:13.484Z,7.70
2017-11-12T04:33:42.553Z,7.70
2017-11-12T04:36:12.196Z,7.80
2017-11-12T04:38:41.043Z,7.80
2017-11-12T04:41:09.869Z,7.90
2017-11-12T04:43:39.469Z,8.00
2017-11-12T04:46:09.090Z,8.00
2017-11-12T04:48:37.941Z,8.00
2017-11-12T04:51:06.791Z,7.80
2017-11-12T04:53:35.624Z,7.70
2017-11-12T04:56:05.235Z,7.40
2017-11-12T04:58:34.529Z,7.40
2017-11-12T05:01:04.138Z,7.50
2017-11-12T05:03:33.771Z,7.60
2017-11-12T05:06:02.607Z,7.60
2017-11-12T05:08:31.455Z,7.70
2017-11-12T05:11:00.299Z,7.70
2017-11-12T05:13:29.132Z,7.60
2017-11-12T05:15:58.423Z,7.60
2017-11-12T05:18:27.365Z,7.40
2017-11-12T05:20:56.199Z,7.20
2017-11-12T05:23:25.020Z,7.20
2017-11-12T05:25:53.864Z,6.90
2017-11-12T05:28:23.492Z,7.00
2017-11-12T05:30:52.353Z,6.90
2017-11-12T05:33:21.960Z,7.30
2017-11-12T05:35:51.592Z,7.40
2017-11-12T05:38:20.452Z,7.30
2017-11-12T05:40:49.279Z,7.30
2017-11-12T05:43:18.135Z,7.10
2017-11-12T05:45:47.748Z,7.30
2017-11-12T05:48:17.357Z,7.50
2017-11-12T05:50:46.500Z,7.40
2017-11-12T05:53:16.153Z,7.60
2017-11-12T05:55:45.692Z,7.60
2017-11-12T05:58:14.536Z,7.50
2017-11-12T06:00:43.374Z,7.40
2017-11-12T06:03:12.212Z,7.20
2017-11-12T06:05:41.073Z,7.30
2017-11-12T06:08:09.900Z,7.10
2017-11-12T06:10:38.785Z,7.10
2017-11-12T06:13:09.127Z,6.80
2017-11-12T06:15:38.764Z,7.10
2017-11-12T06:18:07.610Z,7.10
2017-11-12T06:20:36.455Z,7.10
2017-11-12T06:23:05.300Z,6.90
2017-11-12T06:25:34.167Z,6.80
2017-11-12T06:28:03.008Z,6.90
2017-11-12T06:30:31.843Z,7.10
2017-11-12T06:33:00.692Z,7.30
2017-11-12T06:35:29.549Z,7.50
2017-11-12T06:37:59.153Z,7.30
2017-11-12T06:40:28.765Z,7.50
2017-11-12T06:42:58.372Z,7.50
2017-11-12T06:45:27.225Z,7.50
2017-11-12T06:47:56.073Z,7.50
2017-11-12T06:50:24.925Z,7.30
2017-11-12T06:52:54.534Z,7.30
2017-11-12T06:55:23.383Z,7.30
2017-11-12T06:57:52.216Z,7.50
2017-11-12T07:00:21.069Z,7.40
2017-11-12T07:02:49.900Z,7.20
2017-11-12T07:05:18.755Z,7.30
2017-11-12T07:07:47.586Z,7.10
2017-11-12T07:10:17.208Z,6.70
2017-11-12T07:12:46.812Z,6.80
2017-11-12T07:15:15.682Z,6.70
2017-11-12T07:17:44.526Z,6.80
2017-11-12T07:20:13.366Z,6.80
2017-11-12T07:22:42.242Z,6.80
2017-11-12T07:25:11.084Z,7.00
2017-11-12T07:27:41.208Z,7.10
2017-11-12T07:30:10.143Z,7.10
2017-11-12T07:32:38.955Z,7.30
2017-11-12T07:35:08.556Z,7.40
2017-11-12T07:37:38.197Z,7.20
2017-11-12T07:40:07.068Z,7.10
2017-11-12T07:42:36.676Z,7.10
2017-11-12T07:45:06.324Z,7.10
2017-11-12T07:47:35.160Z,7.10
2017-11-12T07:50:04.773Z,7.10
2017-11-12T07:52:34.531Z,7.00
2017-11-12T07:55:03.385Z,6.90
2017-11-12T07:57:32.221Z,6.80
2017-11-12T08:00:01.862Z,7.00
2017-11-12T08:02:30.697Z,7.00
2017-11-12T08:04:59.551Z,7.10
2017-11-12T08:07:28.402Z,7.20
2017-11-12T08:09:58.012Z,7.40
2017-11-12T08:12:27.640Z,7.50
2017-11-12T08:14:57.295Z,7.50
2017-11-12T08:17:26.905Z,7.30
2017-11-12T08:19:55.753Z,7.30
2017-11-12T08:22:24.606Z,7.20
2017-11-12T08:24:54.232Z,7.20
2017-11-12T08:27:23.398Z,7.10
2017-11-12T08:29:52.494Z,7.30
2017-11-12T08:32:21.383Z,7.10
2017-11-12T08:34:50.256Z,7.20
2017-11-12T08:37:19.100Z,7.10
2017-11-12T08:39:47.959Z,7.10
2017-11-12T08:42:17.110Z,7.20
2017-11-12T08:44:45.974Z,7.40
2017-11-12T08:47:14.792Z,7.40
2017-11-12T08:49:43.691Z,7.30
2017-11-12T08:52:12.521Z,7.40
2017-11-12T08:54:42.119Z,7.30
2017-11-12T08:57:10.979Z,7.30
2017-11-12T08:59:39.818Z,7.30
2017-11-12T09:02:08.664Z,7.30
2017-11-12T09:04:37.508Z,7.30
2017-11-12T09:07:06.340Z,7.30
2017-11-12T09:09:35.185Z,7.30
2017-11-12T09:12:04.051Z,7.30
2017-11-12T09:14:33.665Z,7.40
2017-11-12T09:17:03.295Z,7.40
2017-11-12T09:19:32.165Z,7.40
2017-11-12T09:22:01.019Z,7.50
2017-11-12T09:24:29.856Z,7.70
2017-11-12T09:26:58.696Z,7.80
2017-11-12T09:29:29.055Z,7.70
2017-11-12T09:31:57.938Z,7.60
2017-11-12T09:34:27.559Z,7.40
2017-11-12T09:36:57.157Z,7.40
2017-11-12T09:39:26.751Z,7.10
2017-11-12T09:41:56.381Z,7.30
2017-11-12T09:44:25.241Z,7.20
2017-11-12T09:46:54.877Z,7.40
2017-11-12T09:49:23.726Z,7.30
2017-11-12T09:51:52.627Z,7.40
2017-11-12T09:54:22.254Z,7.30
2017-11-12T09:56:51.120Z,7.20
2017-11-12T09:59:19.949Z,7.40
2017-11-12T10:01:48.835Z,7.50
2017-11-12T10:04:17.662Z,7.60
2017-11-12T10:06:46.513Z,7.70
2017-11-12T10:09:16.124Z,7.70
2017-11-12T10:11:45.724Z,7.70
2017-11-12T10:14:15.349Z,7.50
2017-11-12T10:16:44.207Z,7.40
2017-11-12T10:19:13.862Z,7.10
2017-11-12T10:21:42.728Z,7.00
2017-11-12T10:24:11.616Z,7.20
2017-11-12T10:26:41.276Z,7.20
2017-11-12T10:29:10.122Z,7.10
2017-11-12T10:31:38.979Z,7.20
2017-11-12T10:34:08.705Z,7.20
2017-11-12T10:36:38.339Z,7.30
2017-11-12T10:39:07.200Z,7.30
2017-11-12T10:41:36.856Z,7.60
2017-11-12T10:44:05.734Z,7.60
2017-11-12T10:46:34.584Z,7.70
2017-11-12T10:49:04.246Z,7.90
2017-11-12T10:51:33.130Z,7.80
2017-11-12T10:54:02.025Z,7.80
2017-11-12T10:56:31.716Z,7.70
2017-11-12T10:59:01.099Z,7.70
2017-11-12T11:01:29.952Z,7.60
2017-11-12T11:03:58.837Z,7.50
2017-11-12T11:06:28.532Z,7.50
2017-11-12T11:08:58.784Z,7.30
2017-11-12T11:11:27.660Z,7.30
2017-11-12T11:13:56.652Z,7.30
2017-11-12T11:16:26.266Z,7.20
2017-11-12T11:18:55.109Z,7.20
2017-11-12T11:21:24.916Z,7.30
2017-11-12T11:23:53.777Z,7.40
2017-11-12T11:26:22.714Z,7.30
2017-11-12T11:28:52.507Z,7.40
2017-11-12T11:31:21.382Z,7.60
2017-11-12T11:33:50.266Z,7.50
2017-11-12T11:36:19.610Z,7.30
2017-11-12T11:38:48.511Z,7.20
2017-11-12T11:41:18.736Z,7.20
2017-11-12T11:43:48.331Z,7.30
2017-11-12T11:46:18.031Z,7.30
2017-11-12T11:48:47.673Z,7.40
2017-11-12T11:51:16.584Z,7.30
2017-11-12T11:53:46.179Z,7.30
2017-11-12T11:56:15.076Z,7.30
2017-11-12T11:58:43.926Z,7.30
2017-11-12T12:01:13.531Z,7.10
2017-11-12T12:03:43.151Z,7.10
2017-11-12T12:06:12.124Z,7.00
2017-11-12T12:08:40.990Z,7.10
2017-11-12T12:11:09.936Z,7.20
2017-11-12T12:13:38.795Z,7.40
2017-11-12T12:16:08.439Z,7.50
2017-11-12T12:18:37.295Z,7.40
2017-11-12T12:21:06.922Z,7.50
2017-11-12T12:23:35.811Z,7.50
2017-11-12T12:26:04.656Z,7.40
2017-11-12T12:28:33.490Z,7.20
2017-11-12T12:31:02.353Z,7.20
2017-11-12T12:33:31.287Z,7.30
2017-11-12T12:36:00.798Z,7.30
2017-11-12T12:38:29.647Z,7.20
2017-11-12T12:40:58.534Z,7.00
2017-11-12T12:43:28.155Z,7.00
2017-11-12T12:45:57.781Z,6.90
2017-11-12T12:48:26.625Z,6.90
2017-11-12T12:50:55.496Z,7.00
2017-11-12T12:53:25.894Z,6.90
2017-11-12T12:55:54.764Z,6.90
2017-11-12T12:58:23.613Z,7.20
2017-11-12T13:00:53.268Z,7.40
2017-11-12T13:03:22.151Z,7.40
2017-11-12T13:05:51.375Z,7.50
2017-11-12T13:08:20.253Z,7.60
2017-11-12T13:10:49.123Z,7.70
2017-11-12T13:13:18.730Z,8.00
2017-11-12T13:15:47.611Z,7.90
2017-11-12T13:18:16.473Z,8.00
2017-11-12T13:20:46.135Z,8.00
2017-11-12T13:23:15.000Z,8.00
2017-11-12T13:25:43.882Z,8.00
2017-11-12T13:28:14.358Z,7.80
2017-11-12T13:30:43.201Z,7.80
2017-11-12T13:33:13.017Z,7.80
2017-11-12T13:35:41.900Z,7.80
2017-11-12T13:38:11.523Z,8.00
2017-11-12T13:40:40.464Z,8.00
2017-11-12T13:43:09.320Z,8.10
2017-11-12T13:45:38.247Z,8.20
2017-11-12T13:48:07.092Z,7.90
2017-11-12T13:50:36.094Z,7.80
2017-11-12T13:53:05.007Z,7.80
2017-11-12T13:55:34.074Z,8.00
2017-11-12T13:58:02.943Z,8.00
2017-11-12T14:00:31.784Z,7.90
2017-11-12T14:03:00.680Z,7.70
2017-11-12T14:05:29.542Z,7.60
2017-11-12T14:07:59.611Z,7.40
2017-11-12T14:10:29.573Z,7.40
2017-11-12T14:12:59.209Z,7.40
2017-11-12T14:15:28.048Z,7.40
2017-11-12T14:17:56.885Z,7.50
2017-11-12T14:20:25.755Z,7.70
2017-11-12T14:22:54.948Z,7.80
2017-11-12T14:25:24.574Z,7.80
2017-11-12T14:27:53.403Z,7.70
2017-11-12T14:30:22.755Z,7.70
2017-11-12T14:32:52.470Z,7.90
2017-11-12T14:35:21.668Z,7.90
2017-11-12T14:37:51.324Z,7.80
2017-11-12T14:40:20.157Z,7.80
2017-11-12T14:42:49.793Z,7.60
2017-11-12T14:45:18.867Z,7.50
2017-11-12T14:47:48.141Z,7.80
2017-11-12T14:50:17.753Z,7.80
2017-11-12T14:52:47.387Z,7.90
2017-11-12T14:55:16.236Z,7.90
2017-11-12T14:57:45.126Z,8.00
2017-11-12T15:00:15.445Z,8.10
2017-11-12T15:02:44.306Z,8.10
2017-11-12T15:05:13.965Z,8.20
2017-11-12T15:07:42.789Z,8.00
2017-11-12T15:10:12.422Z,7.90
2017-11-12T15:12:42.057Z,8.00
2017-11-12T15:15:10.901Z,7.90
2017-11-12T15:17:39.779Z,8.00
2017-11-12T15:20:08.630Z,8.10
2017-11-12T15:22:37.498Z,8.00
2017-11-12T15:25:06.964Z,7.70
2017-11-12T15:27:35.854Z,7.70
2017-11-12T15:30:05.160Z,7.70
2017-11-12T15:32:34.792Z,7.70
2017-11-12T15:35:04.409Z,7.80
2017-11-12T15:37:34.034Z,7.70
2017-11-12T15:40:02.911Z,7.60
2017-11-12T15:42:32.482Z,7.70
2017-11-12T15:45:01.401Z,7.60
2017-11-12T15:47:31.042Z,7.40
2017-11-12T15:49:59.892Z,7.40
2017-11-12T15:52:28.786Z,7.50
2017-11-12T15:54:58.458Z,7.60
2017-11-12T15:57:27.313Z,7.60
2017-11-12T15:59:57.744Z,7.80
2017-11-12T16:02:27.612Z,7.90
2017-11-12T16:04:56.454Z,7.80
2017-11-12T16:07:25.337Z,7.80
2017-11-12T16:09:54.441Z,7.70
2017-11-12T16:12:23.317Z,7.50
2017-11-12T16:14:52.952Z,7.70
2017-11-12T16:17:22.624Z,7.70
2017-11-12T16:19:51.490Z,7.70
2017-11-12T16:22:20.331Z,7.60
2017-11-12T16:24:49.941Z,7.50
2017-11-12T16:27:18.788Z,7.40
2017-11-12T16:29:47.623Z,7.40
2017-11-12T16:32:16.458Z,7.20
2017-11-12T16:34:45.317Z,7.20
2017-11-12T16:37:14.779Z,7.10
2017-11-12T16:39:43.619Z,7.10
2017-11-12T16:42:12.492Z,7.10
2017-11-12T16:44:42.114Z,7.10
2017-11-12T16:47:11.020Z,7.10
2017-11-12T16:49:39.877Z,7.00
2017-11-12T16:52:09.521Z,7.10
2017-11-12T16:54:38.363Z,7.00
2017-11-12T16:57:07.188Z,7.10
2017-11-12T16:59:36.098Z,7.10
2017-11-12T17:02:05.717Z,6.80
2017-11-12T17:04:34.592Z,6.80
2017-11-12T17:07:04.239Z,6.90
2017-11-12T17:09:33.115Z,7.10
2017-11-12T17:12:02.476Z,7.00
2017-11-12T17:14:31.545Z,7.10
2017-11-12T17:17:01.204Z,7.20
2017-11-12T17:19:30.831Z,7.40
2017-11-12T17:21:59.694Z,7.40
2017-11-12T17:24:29.388Z,7.10
2017-11-12T17:26:58.218Z,7.10
2017-11-12T17:29:27.068Z,7.20
2017-11-12T17:31:56.704Z,7.30
2017-11-12T17:34:25.565Z,7.30
2017-11-12T17:36:55.196Z,6.90
2017-11-12T17:39:24.081Z,6.90
2017-11-12T17:41:53.662Z,7.00
2017-11-12T17:44:23.788Z,7.20
2017-11-12T17:46:53.490Z,7.20
2017-11-12T17:49:22.405Z,7.20
2017-11-12T17:51:52.004Z,7.30
2017-11-12T17:54:22.558Z,7.30
2017-11-12T17:56:51.542Z,7.30
2017-11-12T17:59:21.174Z,7.40
2017-11-12T18:01:50.021Z,7.40
2017-11-12T18:04:19.653Z,7.40
2017-11-12T18:06:49.500Z,7.40
2017-11-12T18:09:18.362Z,7.20
2017-11-12T18:11:47.188Z,7.00
2017-11-12T18:14:16.113Z,6.90
2017-11-12T18:16:44.930Z,6.80
2017-11-12T18:19:13.785Z,6.90
2017-11-12T18:21:43.005Z,7.00
2017-11-12T18:24:11.893Z,7.00
2017-11-12T18:26:40.807Z,7.10
2017-11-12T18:29:09.728Z,7.20
2017-11-12T18:31:38.573Z,7.20
2017-11-12T18:34:07.449Z,7.40
2017-11-12T18:36:36.340Z,7.40
2017-11-12T18:39:05.210Z,7.50
2017-11-12T18:41:34.881Z,7.50
2017-11-12T18:44:03.757Z,7.40
2017-11-12T18:46:33.111Z,7.40
2017-11-12T18:49:01.968Z,7.30
2017-11-12T18:51:30.830Z,7.30
2017-11-12T18:53:59.751Z,7.20
2017-11-12T18:56:32.122Z,7.10
2017-11-12T18:59:05.988Z,6.70
2017-11-12T19:14:57.931Z,6.70
2017-11-12T19:17:31.508Z,6.70
2017-11-12T19:20:08.243Z,6.90
2017-11-12T19:22:37.094Z,6.80
2017-11-12T19:25:11.747Z,6.90
2017-11-12T19:27:40.603Z,7.00
2017-11-12T19:30:09.885Z,7.00
2017-11-12T19:32:38.914Z,7.00
2017-11-12T19:35:07.758Z,7.00
2017-11-12T19:37:37.580Z,7.00
2017-11-12T19:40:08.038Z,7.00
2017-11-12T19:42:39.874Z,7.00
2017-11-12T19:45:11.525Z,7.10
2017-11-12T19:47:42.269Z,6.90
2017-11-12T19:50:18.902Z,6.80
2017-11-12T19:52:52.050Z,6.90
2017-11-12T19:55:25.898Z,7.10
2017-11-12T19:57:57.557Z,7.10
2017-11-12T20:00:27.715Z,7.00
2017-11-12T20:03:01.134Z,7.00
2017-11-12T20:05:32.736Z,7.10
2017-11-12T20:08:13.375Z,7.10
2017-11-12T20:10:44.829Z,7.10
2017-11-12T20:13:14.408Z,7.20
2017-11-12T20:15:45.949Z,7.40
2017-11-12T20:18:17.881Z,7.30
2017-11-12T20:20:51.078Z,7.20
2017-11-12T20:23:20.564Z,7.30
2017-11-12T20:35:34.422Z,7.30
2017-11-12T20:38:04.194Z,6.80
2017-11-12T20:40:33.916Z,6.90
2017-11-12T20:43:03.980Z,6.90
2017-11-12T20:45:32.846Z,7.00
2017-11-12T20:48:01.680Z,7.00
2017-11-12T20:50:30.853Z,6.80
2017-11-12T20:52:59.742Z,6.90
2017-11-12T20:55:29.536Z,6.90
2017-11-12T20:57:58.468Z,6.90
2017-11-12T21:00:29.056Z,6.90
2017-11-12T21:02:58.206Z,6.70
2017-11-12T21:18:27.108Z,6.80
2017-11-12T21:20:57.612Z,6.70
2017-11-12T21:37:03.289Z,7.20
2017-11-12T21:39:32.109Z,7.40
2017-11-12T21:42:01.807Z,7.40
2017-11-12T21:44:30.646Z,7.30
2017-11-12T21:46:59.751Z,7.30
2017-11-12T21:49:28.574Z,7.00
2017-11-12T21:51:57.420Z,7.00
2017-11-12T21:54:26.406Z,6.70
2017-11-12T21:56:55.298Z,6.60
2017-11-12T21:59:24.204Z,6.80
2017-11-12T22:01:53.993Z,6.80
2017-11-12T22:04:23.609Z,7.00
2017-11-12T22:06:52.455Z,6.90
2017-11-12T22:09:21.314Z,7.00
2017-11-12T22:11:50.152Z,7.00
2017-11-12T22:14:18.977Z,7.00
2017-11-12T22:16:47.820Z,7.10
2017-11-12T22:19:16.661Z,7.00
2017-11-12T22:21:45.521Z,7.10
2017-11-12T22:24:15.140Z,7.30
2017-11-12T22:26:44.049Z,7.30
2017-11-12T22:29:12.886Z,7.40
2017-11-12T22:31:41.761Z,7.40
2017-11-12T22:34:10.602Z,7.40
2017-11-12T22:36:39.441Z,7.30
2017-11-12T22:39:08.279Z,7.30
2017-11-12T22:41:37.114Z,7.40
2017-11-12T22:44:05.956Z,7.50
2017-11-12T22:46:34.777Z,7.60
2017-11-12T22:49:03.633Z,7.50
2017-11-12T22:51:32.445Z,7.50
2017-11-12T22:54:01.535Z,7.50
2017-11-12T22:56:30.386Z,7.60
2017-11-12T22:58:59.206Z,7.50
2017-11-12T23:01:28.047Z,7.30
2017-11-12T23:03:56.946Z,7.20
2017-11-12T23:06:25.784Z,7.20
2017-11-12T23:08:55.618Z,7.20
2017-11-12T23:11:24.458Z,7.20
2017-11-12T23:13:53.292Z,7.20
2017-11-12T23:16:22.139Z,7.30
2017-11-12T23:18:50.956Z,7.40
2017-11-12T23:21:19.801Z,7.40
2017-11-12T23:23:48.627Z,7.50
2017-11-12T23:26:18.383Z,7.40
2017-11-12T23:28:47.236Z,7.20
2017-11-12T23:31:16.084Z,7.30
2017-11-12T23:33:44.909Z,7.30
2017-11-12T23:36:14.302Z,7.30
2017-11-12T23:38:43.152Z,7.10
2017-11-12T23:41:11.968Z,7.00
2017-11-12T23:43:41.018Z,7.00
2017-11-12T23:46:10.632Z,7.10
2017-11-12T23:48:39.819Z,7.10
2017-11-12T23:51:09.994Z,7.10
2017-11-12T23:53:38.840Z,7.10
2017-11-12T23:56:08.428Z,7.30
2017-11-12T23:58:38.020Z,6.90
